Time;durP1;ratioP1;P1;durP2;ratioP2;P2;SDS_P1;SDS_P2;PMS_P1;PMS_P2;Temp;Humidity;BMP_temperature;BMP_pressure;BME280_temperature;BME280_humidity;BME280_pressure;Samples;Min_cycle;Max_cycle;Signal;HPM_P1;HPM_P2
2023/11/24 00:01:53;;;;;;;17.38;3.65;;;13.10;99.90;;;;;;4266060;27;20129;-57
2023/11/24 00:03:58;;;;;;;10.52;3.08;;;13.10;99.90;;;;;;4265830;27;20066;-57
2023/11/24 00:06:01;;;;;;;11.85;2.90;;;13.10;99.90;;;;;;4265762;27;20067;-57
2023/11/24 00:08:04;;;;;;;16.92;4.00;;;13.10;99.90;;;;;;4265694;27;20042;-57
2023/11/24 00:10:07;;;;;;;14.95;3.53;;;13.10;99.90;;;;;;4266069;27;20122;-60
2023/11/24 00:12:10;;;;;;;12.77;3.00;;;13.20;99.90;;;;;;4266344;27;20398;-57
2023/11/24 00:14:13;;;;;;;17.52;4.07;;;13.10;99.90;;;;;;4266072;27;20423;-56
2023/11/24 00:16:15;;;;;;;13.43;3.50;;;13.10;99.90;;;;;;4265618;27;20047;-57
2023/11/24 00:18:21;;;;;;;15.65;3.75;;;13.10;99.90;;;;;;4266156;27;20122;-57
2023/11/24 00:20:25;;;;;;;21.35;3.90;;;13.10;99.90;;;;;;4265580;27;20042;-57
2023/11/24 00:22:27;;;;;;;12.43;3.42;;;13.00;99.90;;;;;;4265948;27;20532;-57
2023/11/24 00:24:29;;;;;;;11.23;3.00;;;13.00;99.90;;;;;;4265833;27;20070;-57
2023/11/24 00:26:32;;;;;;;12.60;3.40;;;12.80;99.90;;;;;;4265410;27;20099;-56
2023/11/24 00:28:36;;;;;;;15.75;4.32;;;12.80;99.90;;;;;;4265803;27;20192;-57
2023/11/24 00:30:39;;;;;;;21.20;4.72;;;12.90;99.90;;;;;;4265493;27;20047;-57
2023/11/24 00:32:44;;;;;;;14.82;3.38;;;13.00;99.90;;;;;;4246805;27;20105;-58
2023/11/24 00:34:48;;;;;;;20.50;4.05;;;13.10;99.90;;;;;;4265442;27;20054;-56
2023/11/24 00:36:50;;;;;;;16.45;3.13;;;13.00;99.90;;;;;;4265206;27;20428;-57
2023/11/24 00:38:52;;;;;;;20.00;4.45;;;13.00;99.90;;;;;;4265158;27;20536;-57
2023/11/24 00:40:54;;;;;;;17.80;3.50;;;13.00;99.90;;;;;;4265399;27;20047;-56
2023/11/24 00:42:56;;;;;;;13.90;3.53;;;13.00;99.90;;;;;;4265288;27;20129;-57
2023/11/24 00:44:58;;;;;;;16.55;3.92;;;12.90;99.90;;;;;;4264951;27;20134;-57
2023/11/24 00:47:00;;;;;;;18.02;4.03;;;12.80;99.90;;;;;;4265158;27;20055;-57
2023/11/24 00:49:02;;;;;;;19.92;4.18;;;12.90;99.90;;;;;;4265310;27;20118;-55
2023/11/24 00:51:07;;;;;;;15.10;3.90;;;12.90;99.90;;;;;;4265241;27;20142;-57
2023/11/24 00:53:09;;;;;;;12.90;3.83;;;13.00;99.90;;;;;;4265033;27;20070;-57
2023/11/24 00:55:11;;;;;;;19.20;4.07;;;13.00;99.90;;;;;;4265024;27;20043;-57
2023/11/24 00:57:13;;;;;;;17.63;3.67;;;13.00;99.90;;;;;;4264926;27;20137;-58
2023/11/24 00:59:16;;;;;;;14.07;3.63;;;13.00;99.90;;;;;;4264628;27;20038;-58
2023/11/24 01:01:18;;;;;;;15.57;3.65;;;13.00;99.90;;;;;;4265084;27;20045;-57
2023/11/24 01:03:21;;;;;;;13.90;4.28;;;13.00;99.90;;;;;;4265078;27;20097;-57
2023/11/24 01:05:23;;;;;;;14.88;3.72;;;13.10;99.90;;;;;;4246307;27;20050;-57
2023/11/24 01:07:26;;;;;;;13.60;3.67;;;13.10;99.90;;;;;;4264779;27;20126;-57
2023/11/24 01:09:28;;;;;;;12.15;3.85;;;13.10;99.90;;;;;;4264806;27;20062;-56
2023/11/24 01:11:30;;;;;;;14.63;3.50;;;13.20;99.90;;;;;;4265050;27;20539;-56
2023/11/24 01:13:34;;;;;;;11.27;3.00;;;13.20;99.90;;;;;;4264257;27;20039;-56
2023/11/24 01:15:37;;;;;;;12.27;3.47;;;13.20;99.90;;;;;;4265128;27;20058;-55
2023/11/24 01:17:39;;;;;;;10.60;2.95;;;13.20;99.90;;;;;;4246219;27;20047;-56
2023/11/24 01:19:42;;;;;;;17.02;3.42;;;13.20;99.90;;;;;;4264849;27;20056;-57
2023/11/24 01:21:44;;;;;;;17.13;4.55;;;13.30;99.90;;;;;;4264723;27;20496;-59
2023/11/24 01:23:47;;;;;;;15.15;4.18;;;13.30;99.90;;;;;;4265196;27;20400;-57
2023/11/24 01:25:54;;;;;;;17.05;4.50;;;13.30;99.90;;;;;;4264877;27;20119;-57
2023/11/24 01:27:56;;;;;;;13.32;3.35;;;13.40;99.90;;;;;;4264181;27;20133;-58
2023/11/24 01:29:58;;;;;;;19.80;4.13;;;13.30;99.90;;;;;;4264836;27;20043;-57
2023/11/24 01:32:00;;;;;;;18.23;4.75;;;13.20;99.90;;;;;;4264892;27;20053;-58
2023/11/24 01:34:03;;;;;;;12.80;3.13;;;13.20;99.90;;;;;;4265031;27;20050;-57
2023/11/24 01:36:05;;;;;;;18.90;4.10;;;13.20;99.90;;;;;;4265022;27;20039;-58
2023/11/24 01:38:09;;;;;;;15.43;3.88;;;13.30;99.90;;;;;;4265011;27;20098;-60
2023/11/24 01:40:13;;;;;;;15.93;3.90;;;13.20;99.90;;;;;;4265313;27;20095;-57
2023/11/24 01:42:15;;;;;;;17.35;4.00;;;13.30;99.90;;;;;;4264970;27;20050;-58
2023/11/24 01:44:18;;;;;;;21.23;3.97;;;13.20;99.90;;;;;;4264827;27;20046;-57
2023/11/24 01:46:20;;;;;;;17.25;3.55;;;13.20;99.90;;;;;;4264755;27;20103;-59
2023/11/24 01:48:22;;;;;;;15.55;3.65;;;13.20;99.90;;;;;;4264616;27;20456;-56
2023/11/24 01:50:25;;;;;;;17.40;4.18;;;13.30;99.90;;;;;;4264850;27;20076;-57
2023/11/24 01:52:27;;;;;;;11.32;3.15;;;13.30;99.90;;;;;;4264636;27;20460;-58
2023/11/24 01:54:36;;;;;;;15.43;3.85;;;13.30;99.90;;;;;;4264428;27;20053;-58
2023/11/24 01:56:40;;;;;;;13.93;3.90;;;13.30;99.90;;;;;;4264035;27;20472;-56
2023/11/24 01:58:42;;;;;;;13.07;3.93;;;13.30;99.90;;;;;;4264419;27;20117;-57
2023/11/24 02:00:45;;;;;;;12.77;3.50;;;13.30;99.90;;;;;;4264261;27;20443;-56
2023/11/24 02:02:47;;;;;;;14.88;3.50;;;13.30;99.90;;;;;;4264255;27;20043;-55
2023/11/24 02:04:49;;;;;;;12.55;3.15;;;13.40;99.90;;;;;;4264237;27;20053;-57
2023/11/24 02:06:53;;;;;;;19.67;4.55;;;13.40;99.90;;;;;;4264283;27;20045;-55
2023/11/24 02:08:55;;;;;;;13.48;3.45;;;13.40;99.90;;;;;;4264208;27;20091;-57
2023/11/24 02:10:57;;;;;;;12.93;3.70;;;13.30;99.90;;;;;;4264224;27;20053;-58
2023/11/24 02:13:01;;;;;;;16.20;4.07;;;13.30;99.90;;;;;;4264109;27;20122;-56
2023/11/24 02:15:04;;;;;;;15.43;3.80;;;13.30;99.90;;;;;;4264581;27;20503;-56
2023/11/24 02:17:06;;;;;;;12.88;3.38;;;13.30;99.90;;;;;;4266547;27;20050;-58
2023/11/24 02:19:08;;;;;;;13.73;3.95;;;13.20;99.90;;;;;;4267769;27;20047;-57
2023/11/24 02:21:10;;;;;;;14.82;3.45;;;13.30;99.90;;;;;;4267542;27;20137;-58
2023/11/24 02:23:16;;;;;;;19.92;4.30;;;13.30;99.90;;;;;;4267728;27;20426;-56
2023/11/24 02:25:18;;;;;;;22.85;4.82;;;13.40;99.90;;;;;;4267486;27;20052;-57
2023/11/24 02:27:20;;;;;;;17.73;4.20;;;13.40;99.90;;;;;;4267832;27;20058;-56
2023/11/24 02:29:23;;;;;;;14.00;3.55;;;13.30;99.90;;;;;;4267808;27;20119;-59
2023/11/24 02:31:25;;;;;;;18.63;3.53;;;13.40;99.90;;;;;;4268771;27;20399;-58
2023/11/24 02:33:27;;;;;;;15.77;4.05;;;13.40;99.90;;;;;;4268651;27;20117;-62
2023/11/24 02:35:31;;;;;;;18.05;3.25;;;13.40;99.90;;;;;;4268090;27;20046;-57
2023/11/24 02:37:33;;;;;;;14.88;3.78;;;13.40;99.90;;;;;;4267591;27;20043;-55
2023/11/24 02:39:37;;;;;;;19.42;4.03;;;13.40;99.90;;;;;;4266727;27;20060;-55
2023/11/24 02:41:39;;;;;;;17.73;3.72;;;13.40;99.90;;;;;;4248855;27;20143;-56
2023/11/24 02:43:41;;;;;;;15.13;3.58;;;13.30;99.90;;;;;;4267284;27;20042;-55
2023/11/24 02:45:43;;;;;;;16.33;3.50;;;13.20;99.90;;;;;;4267028;27;20066;-56
2023/11/24 02:47:45;;;;;;;15.43;3.80;;;13.20;99.90;;;;;;4267078;27;20061;-56
2023/11/24 02:49:48;;;;;;;17.35;4.18;;;13.20;99.90;;;;;;4267014;27;20043;-57
2023/11/24 02:51:50;;;;;;;20.67;4.03;;;13.30;99.90;;;;;;4248737;27;20043;-58
2023/11/24 02:53:52;;;;;;;15.45;3.63;;;13.20;99.90;;;;;;4266830;27;20115;-57
2023/11/24 02:55:55;;;;;;;17.40;3.70;;;13.20;99.90;;;;;;4266969;27;20046;-58
2023/11/24 02:57:57;;;;;;;16.13;4.22;;;13.10;99.90;;;;;;4267158;27;20476;-58
2023/11/24 03:00:00;;;;;;;13.48;3.55;;;13.10;99.90;;;;;;4267083;27;20480;-57
2023/11/24 03:02:02;;;;;;;16.60;4.00;;;13.10;99.90;;;;;;4266914;27;20066;-56
2023/11/24 03:04:04;;;;;;;9.80;3.20;;;13.20;99.90;;;;;;4266677;27;20069;-57
2023/11/24 03:06:08;;;;;;;23.55;4.68;;;13.20;99.90;;;;;;4248023;27;20077;-57
2023/11/24 03:08:10;;;;;;;14.25;3.28;;;13.20;99.90;;;;;;4266834;27;20056;-59
2023/11/24 03:10:12;;;;;;;11.80;3.85;;;13.20;99.90;;;;;;4266190;27;20046;-58
2023/11/24 03:12:16;;;;;;;14.93;3.40;;;13.30;99.90;;;;;;4248296;27;20084;-56
2023/11/24 03:14:22;;;;;;;15.23;3.37;;;13.30;99.90;;;;;;4266680;27;20455;-59
2023/11/24 03:16:25;;;;;;;22.90;4.40;;;13.20;99.90;;;;;;4267125;27;20438;-62
2023/11/24 03:18:27;;;;;;;15.20;3.75;;;13.20;99.90;;;;;;4266798;27;20503;-57
2023/11/24 03:20:30;;;;;;;12.85;3.55;;;13.20;99.90;;;;;;4266787;27;20492;-57
2023/11/24 03:22:32;;;;;;;17.52;3.58;;;13.20;99.90;;;;;;4266626;27;20134;-62
2023/11/24 03:24:35;;;;;;;16.17;3.70;;;13.30;99.90;;;;;;4247933;27;20039;-57
2023/11/24 03:26:37;;;;;;;11.38;3.28;;;13.40;99.90;;;;;;4266347;27;20046;-57
2023/11/24 03:28:40;;;;;;;12.30;2.90;;;13.30;99.90;;;;;;4266496;27;20078;-58
2023/11/24 03:30:42;;;;;;;15.23;3.28;;;13.30;99.90;;;;;;4266529;27;20047;-57
2023/11/24 03:32:44;;;;;;;18.45;4.10;;;13.30;99.90;;;;;;4266541;27;20169;-57
2023/11/24 03:34:46;;;;;;;10.93;3.40;;;13.30;99.90;;;;;;4266934;27;20130;-57
2023/11/24 03:36:48;;;;;;;17.58;4.00;;;13.30;99.90;;;;;;4267116;27;20046;-57
2023/11/24 03:38:50;;;;;;;11.40;3.60;;;13.40;99.90;;;;;;4266194;27;20154;-56
2023/11/24 03:40:54;;;;;;;13.20;3.53;;;13.30;99.90;;;;;;4266603;27;20050;-57
2023/11/24 03:42:57;;;;;;;18.80;3.53;;;13.30;99.90;;;;;;4266439;27;20051;-57
2023/11/24 03:45:01;;;;;;;11.65;3.58;;;13.30;99.90;;;;;;4266424;27;20093;-57
2023/11/24 03:47:03;;;;;;;12.75;3.20;;;13.40;99.90;;;;;;4265946;27;20046;-57
2023/11/24 03:49:06;;;;;;;9.48;2.60;;;13.40;99.90;;;;;;4266393;27;20038;-57
2023/11/24 03:51:08;;;;;;;13.18;3.42;;;13.40;99.90;;;;;;4265923;27;20047;-58
2023/11/24 03:53:10;;;;;;;13.85;3.72;;;13.40;99.90;;;;;;4265722;27;20046;-57
2023/11/24 03:55:12;;;;;;;9.40;2.65;;;13.50;99.90;;;;;;4266288;27;20088;-57
2023/11/24 03:57:14;;;;;;;13.23;2.65;;;13.50;99.90;;;;;;4265885;27;20039;-56
2023/11/24 03:59:16;;;;;;;17.33;3.60;;;13.50;99.90;;;;;;4266466;27;20043;-58
2023/11/24 04:01:20;;;;;;;13.52;3.33;;;13.50;99.90;;;;;;4248536;27;20119;-60
2023/11/24 04:03:22;;;;;;;12.65;3.38;;;13.40;99.90;;;;;;4267139;27;20046;-57
2023/11/24 04:05:25;;;;;;;13.02;2.67;;;13.40;99.90;;;;;;4265973;27;20553;-56
2023/11/24 04:07:27;;;;;;;8.18;2.67;;;13.50;99.90;;;;;;4265360;27;20051;-56
2023/11/24 04:09:29;;;;;;;14.15;3.38;;;13.50;99.90;;;;;;4265920;27;20038;-57
2023/11/24 04:11:31;;;;;;;12.45;3.03;;;13.50;99.90;;;;;;4265960;27;20042;-58
2023/11/24 04:13:33;;;;;;;12.35;2.88;;;13.50;99.90;;;;;;4265881;27;20042;-57
2023/11/24 04:15:35;;;;;;;8.90;2.45;;;13.50;99.90;;;;;;4265740;27;20556;-56
2023/11/24 04:17:38;;;;;;;11.35;3.05;;;13.50;99.90;;;;;;4265793;27;20035;-56
2023/11/24 04:19:41;;;;;;;9.38;2.60;;;13.60;99.90;;;;;;4266661;27;20046;-59
2023/11/24 04:21:43;;;;;;;8.52;2.92;;;13.60;99.90;;;;;;4266811;27;20093;-62
2023/11/24 04:23:45;;;;;;;7.75;2.50;;;13.60;99.90;;;;;;4266512;27;20043;-58
2023/11/24 04:25:47;;;;;;;10.15;2.90;;;13.70;99.90;;;;;;4266068;27;20063;-57
2023/11/24 04:27:49;;;;;;;12.75;3.28;;;13.60;99.90;;;;;;4265801;27;20069;-57
2023/11/24 04:29:51;;;;;;;9.63;3.05;;;13.60;99.90;;;;;;4265516;27;20053;-57
2023/11/24 04:31:54;;;;;;;14.07;2.83;;;13.60;99.90;;;;;;4265598;27;20134;-58
2023/11/24 04:33:57;;;;;;;12.45;2.83;;;13.60;99.90;;;;;;4265642;27;20042;-56
2023/11/24 04:36:00;;;;;;;8.70;2.97;;;13.70;99.90;;;;;;4265070;27;20053;-57
2023/11/24 04:38:02;;;;;;;11.75;2.42;;;13.70;99.90;;;;;;4265508;27;20053;-57
2023/11/24 04:40:06;;;;;;;8.80;2.55;;;13.70;99.90;;;;;;4264468;27;20054;-58
2023/11/24 04:42:09;;;;;;;10.48;3.55;;;13.70;99.90;;;;;;4265216;27;20049;-56
2023/11/24 04:44:11;;;;;;;9.98;2.90;;;13.80;99.90;;;;;;4265141;27;20142;-57
2023/11/24 04:46:13;;;;;;;10.65;2.20;;;13.80;99.90;;;;;;4265294;27;20129;-57
2023/11/24 04:48:15;;;;;;;11.70;3.55;;;13.80;99.90;;;;;;4246922;27;20130;-57
2023/11/24 04:50:19;;;;;;;6.57;2.40;;;13.80;99.90;;;;;;4264894;27;20049;-58
2023/11/24 04:52:21;;;;;;;9.10;2.88;;;13.80;99.90;;;;;;4265248;27;20411;-58
2023/11/24 04:54:23;;;;;;;11.48;2.65;;;13.80;99.90;;;;;;4265034;27;20053;-58
2023/11/24 04:56:25;;;;;;;10.10;3.08;;;13.70;99.90;;;;;;4264931;27;20043;-58
2023/11/24 04:58:27;;;;;;;13.38;3.28;;;13.70;99.90;;;;;;4265150;27;20039;-57
2023/11/24 05:00:29;;;;;;;14.85;3.08;;;13.60;99.90;;;;;;4246981;27;20453;-58
2023/11/24 05:02:31;;;;;;;9.38;2.97;;;13.70;99.90;;;;;;4264878;27;20050;-57
2023/11/24 05:04:36;;;;;;;9.95;2.67;;;13.60;99.90;;;;;;4264923;27;20056;-58
2023/11/24 05:06:39;;;;;;;10.43;3.00;;;13.60;99.90;;;;;;4265119;27;20070;-57
2023/11/24 05:08:42;;;;;;;7.68;2.40;;;13.60;99.90;;;;;;4264931;27;20082;-56
2023/11/24 05:10:47;;;;;;;9.20;3.35;;;13.60;99.90;;;;;;4264785;27;20118;-57
2023/11/24 05:12:49;;;;;;;7.68;2.42;;;13.60;99.90;;;;;;4246625;27;20053;-57
2023/11/24 05:14:52;;;;;;;7.43;2.50;;;13.50;99.90;;;;;;4264974;27;20125;-56
2023/11/24 05:16:57;;;;;;;6.93;2.10;;;13.50;99.90;;;;;;4265562;27;20043;-58
2023/11/24 05:18:59;;;;;;;7.75;2.47;;;13.50;99.90;;;;;;4264575;27;20123;-58
2023/11/24 05:21:01;;;;;;;10.32;2.72;;;13.50;99.90;;;;;;4264821;27;20074;-57
2023/11/24 05:23:04;;;;;;;9.85;2.92;;;13.50;99.90;;;;;;4264527;27;20103;-56
2023/11/24 05:25:07;;;;;;;9.32;2.65;;;13.50;99.90;;;;;;4264870;27;20042;-58
2023/11/24 05:27:09;;;;;;;10.70;2.53;;;13.60;99.90;;;;;;4264546;27;20042;-57
2023/11/24 05:29:11;;;;;;;9.85;3.35;;;13.60;99.90;;;;;;4264739;27;20051;-57
2023/11/24 05:31:14;;;;;;;13.40;3.17;;;13.60;99.90;;;;;;4264840;27;20043;-57
2023/11/24 05:33:17;;;;;;;11.50;3.13;;;13.70;99.90;;;;;;4264817;27;20050;-56
2023/11/24 05:35:19;;;;;;;10.00;3.05;;;13.70;99.90;;;;;;4264418;27;20047;-57
2023/11/24 05:37:21;;;;;;;9.25;2.33;;;13.70;99.90;;;;;;4264473;27;20058;-57
2023/11/24 05:39:24;;;;;;;9.80;2.83;;;13.70;99.90;;;;;;4264375;27;20484;-57
2023/11/24 05:41:27;;;;;;;6.32;2.70;;;13.80;99.90;;;;;;4264953;27;20043;-57
2023/11/24 05:43:29;;;;;;;8.23;2.50;;;13.80;99.90;;;;;;4264482;27;20117;-57
2023/11/24 05:45:34;;;;;;;12.30;2.63;;;13.80;99.90;;;;;;4264801;27;20407;-58
2023/11/24 05:47:37;;;;;;;7.63;2.53;;;13.80;99.90;;;;;;4264369;27;20051;-57
2023/11/24 05:49:41;;;;;;;12.45;2.70;;;13.80;99.90;;;;;;4264910;27;20046;-59
2023/11/24 05:51:43;;;;;;;6.40;2.08;;;13.80;99.90;;;;;;4266809;27;20447;-57
2023/11/24 05:53:46;;;;;;;8.02;2.65;;;13.70;99.90;;;;;;4268156;27;20046;-58
2023/11/24 05:55:49;;;;;;;10.60;2.95;;;13.70;99.90;;;;;;4268209;27;20389;-58
2023/11/24 05:57:51;;;;;;;11.55;3.10;;;13.70;99.90;;;;;;4268109;27;20050;-58
2023/11/24 05:59:54;;;;;;;8.25;2.92;;;13.70;99.90;;;;;;4268023;27;20407;-58
2023/11/24 06:01:56;;;;;;;11.77;3.63;;;13.80;99.90;;;;;;4268140;27;20070;-57
2023/11/24 06:03:58;;;;;;;10.82;3.15;;;13.70;99.90;;;;;;4267676;27;20487;-56
2023/11/24 06:06:01;;;;;;;7.80;2.97;;;13.70;99.90;;;;;;4268005;27;20053;-58
2023/11/24 06:08:04;;;;;;;10.82;3.08;;;13.70;99.90;;;;;;4249432;27;20143;-57
2023/11/24 06:10:08;;;;;;;11.18;3.08;;;13.70;99.90;;;;;;4267624;27;20046;-58
2023/11/24 06:12:11;;;;;;;6.93;2.95;;;13.60;99.90;;;;;;4267486;27;20042;-58
2023/11/24 06:14:13;;;;;;;11.80;3.38;;;13.60;99.90;;;;;;4267910;27;20042;-55
2023/11/24 06:16:15;;;;;;;7.10;3.03;;;13.60;99.90;;;;;;4267787;27;20053;-55
2023/11/24 06:18:18;;;;;;;12.77;3.13;;;13.60;99.90;;;;;;4267217;27;20096;-56
2023/11/24 06:20:20;;;;;;;7.80;2.90;;;13.70;99.90;;;;;;4249225;27;20144;-57
2023/11/24 06:22:22;;;;;;;6.80;3.03;;;13.70;99.90;;;;;;4267676;27;20081;-59
2023/11/24 06:24:24;;;;;;;12.57;3.60;;;13.70;99.90;;;;;;4267756;27;20039;-56
2023/11/24 06:26:27;;;;;;;12.60;3.58;;;13.80;99.90;;;;;;4267619;27;20046;-57
2023/11/24 06:28:31;;;;;;;14.13;4.25;;;13.70;99.90;;;;;;4267360;27;20047;-58
2023/11/24 06:30:33;;;;;;;13.93;3.95;;;13.70;99.90;;;;;;4267570;27;20054;-57
2023/11/24 06:32:35;;;;;;;12.18;3.42;;;13.60;99.90;;;;;;4266956;27;20088;-59
2023/11/24 06:34:37;;;;;;;11.57;3.05;;;13.50;99.90;;;;;;4267411;27;20063;-58
2023/11/24 06:36:39;;;;;;;12.93;2.90;;;13.60;99.90;;;;;;4267359;27;20049;-58
2023/11/24 06:38:41;;;;;;;9.32;2.70;;;13.50;99.90;;;;;;4267147;27;20054;-61
2023/11/24 06:40:43;;;;;;;8.15;2.65;;;13.50;99.90;;;;;;4249007;27;20437;-57
2023/11/24 06:42:45;;;;;;;14.25;3.15;;;13.50;99.90;;;;;;4248987;27;20463;-58
2023/11/24 06:44:49;;;;;;;15.90;3.58;;;13.50;99.90;;;;;;4267039;27;20450;-57
2023/11/24 06:46:51;;;;;;;11.90;2.88;;;13.50;99.90;;;;;;4266872;27;20433;-57
2023/11/24 06:48:53;;;;;;;11.32;2.58;;;13.50;99.90;;;;;;4267080;27;20050;-57
2023/11/24 06:50:55;;;;;;;10.50;2.97;;;13.50;99.90;;;;;;4267138;27;20039;-57
2023/11/24 06:52:57;;;;;;;10.85;2.97;;;13.50;99.90;;;;;;4267100;27;20122;-57
2023/11/24 06:54:59;;;;;;;13.13;2.50;;;13.50;99.90;;;;;;4266959;27;20113;-56
2023/11/24 06:57:02;;;;;;;10.75;3.08;;;13.60;99.90;;;;;;4267108;27;20062;-57
2023/11/24 06:59:04;;;;;;;13.88;2.90;;;13.60;99.90;;;;;;4267024;27;20126;-57
2023/11/24 07:01:08;;;;;;;10.18;2.55;;;13.60;99.90;;;;;;4266933;27;20123;-57
2023/11/24 07:03:10;;;;;;;9.82;3.03;;;13.70;99.90;;;;;;4247956;27;20047;-57
2023/11/24 07:05:12;;;;;;;8.45;2.95;;;13.70;99.90;;;;;;4266994;27;20066;-56
2023/11/24 07:07:15;;;;;;;11.60;2.90;;;13.70;99.90;;;;;;4266843;27;20074;-58
2023/11/24 07:09:19;;;;;;;19.33;3.22;;;13.70;99.90;;;;;;4266649;27;20404;-56
2023/11/24 07:11:22;;;;;;;15.17;2.67;;;13.60;99.90;;;;;;4266710;27;20081;-57
2023/11/24 07:13:24;;;;;;;11.38;2.90;;;13.50;99.90;;;;;;4267434;27;20412;-61
2023/11/24 07:15:26;;;;;;;10.82;2.80;;;13.50;99.90;;;;;;4267099;27;20075;-58
2023/11/24 07:17:31;;;;;;;17.05;2.60;;;13.50;99.90;;;;;;4267094;27;20051;-57
2023/11/24 07:19:33;;;;;;;;;;;13.50;99.90;;;;;;4267634;27;20514;-58
2023/11/24 07:21:35;;;;;;;11.35;3.03;;;13.50;99.90;;;;;;4266946;27;19927;-63
2023/11/24 07:23:37;;;;;;;10.05;2.70;;;13.30;99.90;;;;;;4266627;27;20112;-57
2023/11/24 07:25:40;;;;;;;10.80;2.90;;;13.30;99.90;;;;;;4248545;27;20047;-57
2023/11/24 07:27:42;;;;;;;13.00;2.58;;;13.20;99.90;;;;;;4266785;27;20134;-58
2023/11/24 07:29:44;;;;;;;10.23;2.97;;;13.20;99.90;;;;;;4266748;27;20038;-56
2023/11/24 07:31:46;;;;;;;11.00;2.85;;;13.20;99.90;;;;;;4266588;27;20049;-58
2023/11/24 07:33:50;;;;;;;10.50;2.47;;;13.20;99.90;;;;;;4266628;27;20054;-59
2023/11/24 07:35:52;;;;;;;15.27;3.03;;;13.20;99.90;;;;;;4266648;27;20042;-57
2023/11/24 07:37:54;;;;;;;16.42;3.33;;;13.20;99.90;;;;;;4266259;27;20055;-58
2023/11/24 07:39:56;;;;;;;12.85;2.67;;;13.10;99.90;;;;;;4265972;27;20082;-57
2023/11/24 07:41:59;;;;;;;10.65;2.88;;;13.30;99.90;;;;;;4248231;27;20051;-57
2023/11/24 07:44:01;;;;;;;15.30;2.83;;;13.20;99.90;;;;;;4266038;27;20133;-57
2023/11/24 07:46:07;;;;;;;13.13;3.15;;;13.20;99.90;;;;;;4266105;27;20078;-57
2023/11/24 07:48:09;;;;;;;12.18;2.75;;;13.10;99.90;;;;;;4266118;27;20062;-58
2023/11/24 07:50:12;;;;;;;10.20;2.97;;;13.10;99.90;;;;;;4266131;27;20074;-58
2023/11/24 07:52:15;;;;;;;17.30;4.03;;;13.00;98.70;;;;;;4265993;27;20380;-56
2023/11/24 07:54:17;;;;;;;14.88;3.38;;;13.10;98.30;;;;;;4266129;27;20042;-57
2023/11/24 07:56:19;;;;;;;17.52;3.80;;;13.10;98.00;;;;;;4266104;27;20078;-57
2023/11/24 07:58:22;;;;;;;15.52;3.88;;;13.00;98.20;;;;;;4265579;27;20039;-58
2023/11/24 08:00:24;;;;;;;19.92;3.75;;;13.00;98.20;;;;;;4266338;27;20070;-57
2023/11/24 08:02:27;;;;;;;15.73;3.75;;;13.10;98.20;;;;;;4265924;27;20050;-57
2023/11/24 08:04:29;;;;;;;15.98;3.45;;;13.00;97.90;;;;;;4265962;27;20046;-58
2023/11/24 08:06:33;;;;;;;19.13;4.05;;;13.00;98.50;;;;;;4266093;27;20126;-57
2023/11/24 08:08:35;;;;;;;18.48;3.08;;;13.00;98.00;;;;;;4266000;27;20050;-58
2023/11/24 08:10:38;;;;;;;16.05;3.90;;;13.10;98.10;;;;;;4266004;27;20047;-58
2023/11/24 08:12:40;;;;;;;21.25;3.60;;;13.00;97.60;;;;;;4265815;27;20042;-57
2023/11/24 08:14:45;;;;;;;16.48;3.90;;;13.00;97.70;;;;;;4264522;27;20047;-57
2023/11/24 08:16:47;;;;;;;19.25;3.88;;;13.00;97.40;;;;;;4265792;27;20073;-57
2023/11/24 08:18:49;;;;;;;15.25;3.67;;;12.90;97.70;;;;;;4265835;27;20375;-57
2023/11/24 08:20:52;;;;;;;16.45;3.58;;;12.90;97.50;;;;;;4265582;27;20698;-56
2023/11/24 08:22:58;;;;;;;14.43;3.67;;;12.90;97.70;;;;;;4265872;27;20126;-57
2023/11/24 08:24:59;;;;;;;;;;;12.90;97.70;;;;;;4266208;27;20043;-57
2023/11/24 08:27:02;;;;;;;19.80;4.03;;;12.70;97.50;;;;;;4265675;27;19923;-57
2023/11/24 08:29:04;;;;;;;13.55;4.25;;;12.70;97.80;;;;;;4265281;27;20058;-57
2023/11/24 08:31:06;;;;;;;20.25;3.83;;;12.70;97.70;;;;;;4265426;27;20431;-57
2023/11/24 08:33:08;;;;;;;18.52;4.40;;;12.70;97.40;;;;;;4265482;27;20476;-58
2023/11/24 08:35:10;;;;;;;14.40;3.47;;;12.80;97.60;;;;;;4265701;27;20047;-57
2023/11/24 08:37:13;;;;;;;17.75;3.83;;;12.70;97.50;;;;;;4265329;27;20042;-56
2023/11/24 08:39:17;;;;;;;21.33;4.35;;;12.60;97.60;;;;;;4265296;27;20054;-59
2023/11/24 08:41:19;;;;;;;21.48;4.68;;;12.70;97.60;;;;;;4265738;27;20140;-57
2023/11/24 08:43:37;;;;;;;28.30;4.97;;;12.80;97.20;;;;;;4263778;27;20046;-62
2023/11/24 08:45:39;;;;;;;18.05;4.45;;;12.70;97.10;;;;;;4251028;27;20047;-57
2023/11/24 08:47:41;;;;;;;18.77;4.07;;;12.80;97.20;;;;;;4261693;27;20034;-58
2023/11/24 08:49:43;;;;;;;16.38;3.28;;;12.70;97.20;;;;;;4262027;27;20050;-57
2023/11/24 08:51:46;;;;;;;21.35;3.88;;;12.70;96.90;;;;;;4264634;27;20046;-58
2023/11/24 08:53:48;;;;;;;22.40;4.30;;;12.70;97.00;;;;;;4260667;27;20793;-57
2023/11/24 08:55:51;;;;;;;24.65;4.47;;;12.70;97.50;;;;;;4264581;27;20432;-57
2023/11/24 08:57:59;;;;;;;19.75;4.20;;;12.80;96.90;;;;;;4264698;27;20046;-56
2023/11/24 09:00:01;;;;;;;22.83;4.10;;;12.80;96.40;;;;;;4255131;27;20118;-57
2023/11/24 09:02:04;;;;;;;19.35;3.85;;;12.70;96.30;;;;;;4259569;27;20054;-57
2023/11/24 09:04:09;;;;;;;19.98;4.55;;;12.60;96.10;;;;;;4261543;27;20092;-56
2023/11/24 09:06:11;;;;;;;17.98;4.63;;;12.50;95.90;;;;;;4252735;27;20126;-58
2023/11/24 09:08:13;;;;;;;20.55;4.32;;;12.60;96.10;;;;;;4264517;27;20396;-57
2023/11/24 09:10:20;;;;;;;18.17;4.57;;;12.60;96.10;;;;;;4237591;27;20056;-58
2023/11/24 09:12:23;;;;;;;17.40;3.92;;;12.70;96.10;;;;;;4260346;27;20464;-58
2023/11/24 09:14:25;;;;;;;19.42;4.07;;;12.70;96.30;;;;;;4263084;27;20399;-58
2023/11/24 09:16:28;;;;;;;22.58;4.68;;;12.80;96.40;;;;;;4252639;27;20468;-57
2023/11/24 09:18:30;;;;;;;20.23;4.97;;;12.90;96.40;;;;;;4264421;27;20054;-57
2023/11/24 09:20:32;;;;;;;19.15;4.43;;;12.90;96.30;;;;;;4258594;27;20114;-59
2023/11/24 09:22:34;;;;;;;15.90;3.30;;;12.90;96.70;;;;;;4252393;27;20454;-58
2023/11/24 09:24:36;;;;;;;21.15;3.85;;;12.90;96.30;;;;;;4248521;27;20047;-54
2023/11/24 09:26:42;;;;;;;23.15;4.40;;;12.90;96.60;;;;;;4260872;27;20051;-53
2023/11/24 09:28:45;;;;;;;15.63;3.95;;;12.80;96.90;;;;;;4264499;27;20146;-56
2023/11/24 09:30:47;;;;;;;22.40;4.43;;;12.90;96.60;;;;;;4238797;27;20159;-56
2023/11/24 09:32:54;;;;;;;17.45;4.05;;;12.80;96.20;;;;;;4240307;28;20072;-58
2023/11/24 09:34:56;;;;;;;19.05;4.28;;;12.80;95.80;;;;;;4262689;27;20066;-56
2023/11/24 09:36:58;;;;;;;15.52;3.83;;;12.80;95.30;;;;;;4252666;27;20050;-64
2023/11/24 09:39:00;;;;;;;18.55;4.80;;;12.80;95.40;;;;;;4264157;27;20053;-57
2023/11/24 09:41:07;;;;;;;25.92;4.15;;;12.80;95.60;;;;;;4257867;27;20039;-57
2023/11/24 09:43:10;;;;;;;22.05;4.75;;;12.90;95.00;;;;;;4258161;27;20607;-57
2023/11/24 09:45:16;;;;;;;18.58;4.32;;;12.90;94.80;;;;;;4262752;27;20043;-60
2023/11/24 09:47:20;;;;;;;17.23;3.97;;;12.80;94.90;;;;;;4263509;27;20400;-62
2023/11/24 09:49:24;;;;;;;26.10;4.63;;;12.70;94.50;;;;;;4245912;28;20127;-58
2023/11/24 09:51:26;;;;;;;20.88;3.90;;;12.70;94.70;;;;;;4257393;27;20049;-57
2023/11/24 09:53:36;;;;;;;14.60;4.03;;;12.60;94.70;;;;;;4255208;27;20046;-57
2023/11/24 09:55:40;;;;;;;20.30;4.18;;;12.70;95.00;;;;;;4262165;27;20043;-54
2023/11/24 09:57:43;;;;;;;17.73;4.43;;;12.80;95.00;;;;;;4252428;27;20074;-54
2023/11/24 09:59:46;;;;;;;20.85;4.25;;;12.80;94.40;;;;;;4264057;27;20054;-56
2023/11/24 10:01:53;;;;;;;19.38;4.55;;;12.80;94.70;;;;;;4257482;27;20039;-56
2023/11/24 10:03:57;;;;;;;18.77;4.22;;;12.90;95.10;;;;;;4258717;27;20114;-57
2023/11/24 10:06:00;;;;;;;20.33;3.93;;;12.90;94.30;;;;;;4262512;27;20460;-56
2023/11/24 10:08:02;;;;;;;14.90;3.58;;;13.00;93.90;;;;;;4252377;27;20455;-58
2023/11/24 10:10:06;;;;;;;27.48;4.38;;;12.90;94.10;;;;;;4263651;27;20365;-57
2023/11/24 10:12:09;;;;;;;15.65;4.00;;;12.90;93.50;;;;;;4259913;27;20043;-56
2023/11/24 10:14:12;;;;;;;14.90;3.65;;;12.90;93.60;;;;;;4252987;27;20059;-56
2023/11/24 10:16:14;;;;;;;14.43;4.00;;;12.90;93.00;;;;;;4247938;27;20054;-57
2023/11/24 10:18:18;;;;;;;17.05;4.30;;;12.80;92.90;;;;;;4258434;27;20070;-57
2023/11/24 10:20:22;;;;;;;18.77;4.63;;;12.90;92.90;;;;;;4254340;27;20541;-57
2023/11/24 10:22:27;;;;;;;12.90;3.72;;;12.70;92.30;;;;;;4259604;27;20039;-56
2023/11/24 10:24:32;;;;;;;23.33;4.20;;;12.80;92.70;;;;;;4253911;27;20046;-57
2023/11/24 10:26:34;;;;;;;32.30;5.00;;;12.80;93.20;;;;;;4247958;27;20134;-56
2023/11/24 10:28:36;;;;;;;22.70;4.10;;;12.80;92.80;;;;;;4258229;27;20464;-57
2023/11/24 10:30:38;;;;;;;26.08;5.03;;;12.80;92.90;;;;;;4246724;28;20403;-57
2023/11/24 10:32:42;;;;;;;24.42;3.78;;;12.90;93.60;;;;;;4251924;27;20031;-57